createdAt,value
2017-07-04T00:00:19.466Z,17.64
2017-07-04T00:01:20.794Z,17.66
2017-07-04T00:02:22.173Z,17.53
2017-07-04T00:03:23.503Z,17.63
2017-07-04T00:04:24.811Z,17.62
2017-07-04T00:05:26.215Z,17.57
2017-07-04T00:06:27.435Z,17.59
2017-07-04T00:07:28.734Z,17.55
2017-07-04T00:08:29.993Z,17.59
2017-07-04T00:09:31.268Z,17.55
2017-07-04T00:10:32.551Z,17.55
2017-07-04T00:11:33.854Z,17.53
2017-07-04T00:12:35.175Z,17.48
2017-07-04T00:13:36.471Z,17.47
2017-07-04T00:14:37.731Z,17.51
2017-07-04T00:15:39.028Z,17.43
2017-07-04T00:16:40.297Z,17.48
2017-07-04T00:17:41.600Z,17.38
2017-07-04T00:18:42.857Z,17.43
2017-07-04T00:19:44.128Z,17.41
2017-07-04T00:20:45.516Z,17.47
2017-07-04T00:21:46.794Z,17.4
2017-07-04T00:22:48.053Z,17.35
2017-07-04T00:23:49.404Z,17.33
2017-07-04T00:24:50.687Z,17.4
2017-07-04T00:25:51.948Z,17.26
2017-07-04T00:26:53.218Z,17.26
2017-07-04T00:27:54.538Z,17.22
2017-07-04T00:28:55.846Z,17.28
2017-07-04T00:29:57.088Z,17.28
2017-07-04T00:30:58.383Z,17.26
2017-07-04T00:31:59.659Z,17.2
2017-07-04T00:33:00.930Z,17.2
2017-07-04T00:34:02.229Z,17.04
2017-07-04T00:35:03.494Z,17.11
2017-07-04T00:36:04.744Z,17.15
2017-07-04T00:37:06.010Z,17.13
2017-07-04T00:38:07.319Z,17.11
2017-07-04T00:39:08.595Z,17.13
2017-07-04T00:40:09.891Z,17.13
2017-07-04T00:41:11.141Z,17.07
2017-07-04T00:42:12.369Z,17.08
2017-07-04T00:43:13.655Z,17.06
2017-07-04T00:44:14.932Z,17
2017-07-04T00:45:16.213Z,16.98
2017-07-04T00:46:17.477Z,16.92
2017-07-04T00:47:18.780Z,16.95
2017-07-04T00:48:20.019Z,16.86
2017-07-04T00:49:21.268Z,16.9
2017-07-04T00:50:22.585Z,16.88
2017-07-04T00:51:23.812Z,16.85
2017-07-04T00:52:25.066Z,16.81
2017-07-04T00:53:26.356Z,16.81
2017-07-04T00:54:27.629Z,16.83
2017-07-04T00:55:28.926Z,16.8
2017-07-04T00:56:30.185Z,16.88
2017-07-04T00:57:31.450Z,16.78
2017-07-04T00:58:32.759Z,16.74
2017-07-04T00:59:34.058Z,16.7
2017-07-04T01:00:35.295Z,16.7
2017-07-04T01:01:36.553Z,16.63
2017-07-04T01:02:37.823Z,16.71
2017-07-04T01:03:39.102Z,16.62
2017-07-04T01:04:40.387Z,16.48
2017-07-04T01:05:41.711Z,16.52
2017-07-04T01:06:42.967Z,16.48
2017-07-04T01:07:44.246Z,16.53
2017-07-04T01:08:45.687Z,16.59
2017-07-04T01:09:47.045Z,16.56
2017-07-04T01:10:48.322Z,16.55
2017-07-04T01:11:49.613Z,16.6
2017-07-04T01:12:50.887Z,16.56
2017-07-04T01:13:52.197Z,16.56
2017-07-04T01:14:53.454Z,16.56
2017-07-04T01:15:54.745Z,16.5
2017-07-04T01:16:56.083Z,16.45
2017-07-04T01:17:57.356Z,16.5
2017-07-04T01:18:58.708Z,16.48
2017-07-04T01:19:59.972Z,16.5
2017-07-04T01:21:01.243Z,16.42
2017-07-04T01:22:02.518Z,16.44
2017-07-04T01:23:03.898Z,16.48
2017-07-04T01:24:05.137Z,16.52
2017-07-04T01:25:06.385Z,16.4
2017-07-04T01:26:07.654Z,16.38
2017-07-04T01:27:08.976Z,16.45
2017-07-04T01:28:10.289Z,16.35
2017-07-04T01:29:11.544Z,16.34
2017-07-04T01:30:12.885Z,16.25
2017-07-04T01:31:14.136Z,16.22
2017-07-04T01:32:15.484Z,16.25
2017-07-04T01:33:16.901Z,16.23
2017-07-04T01:34:18.153Z,16.12
2017-07-04T01:35:19.404Z,16.16
2017-07-04T01:36:20.677Z,16.12
2017-07-04T01:37:21.953Z,16.09
2017-07-04T01:38:23.238Z,16.04
2017-07-04T01:39:24.508Z,15.97
2017-07-04T01:40:25.812Z,16
2017-07-04T01:41:27.110Z,15.89
2017-07-04T01:42:28.387Z,15.97
2017-07-04T01:43:29.720Z,15.92
2017-07-04T01:44:30.943Z,15.92
2017-07-04T01:45:32.324Z,15.86
2017-07-04T01:46:33.570Z,15.85
2017-07-04T01:47:34.834Z,15.81
2017-07-04T01:48:36.158Z,15.82
2017-07-04T01:49:37.472Z,15.88
2017-07-04T01:50:38.754Z,15.92
2017-07-04T01:51:40.032Z,15.89
2017-07-04T01:52:41.351Z,15.93
2017-07-04T01:53:42.670Z,15.97
2017-07-04T01:54:43.887Z,15.96
2017-07-04T01:55:45.171Z,15.94
2017-07-04T01:56:46.505Z,15.96
2017-07-04T01:57:47.771Z,16.14
2017-07-04T01:58:49.112Z,16.11
2017-07-04T01:59:50.427Z,16.14
2017-07-04T02:00:51.688Z,16.11
2017-07-04T02:01:52.995Z,16.2
2017-07-04T02:02:54.310Z,16.18
2017-07-04T02:03:55.545Z,16.18
2017-07-04T02:04:56.795Z,16.23
2017-07-04T02:05:58.067Z,16.18
2017-07-04T02:06:59.391Z,16.25
2017-07-04T02:08:00.687Z,16.23
2017-07-04T02:09:01.930Z,16.35
2017-07-04T02:10:03.226Z,16.35
2017-07-04T02:11:04.470Z,16.42
2017-07-04T02:12:05.757Z,16.44
2017-07-04T02:13:07.076Z,16.52
2017-07-04T02:14:08.437Z,16.55
2017-07-04T02:15:09.722Z,16.56
2017-07-04T02:16:11.035Z,16.58
2017-07-04T02:17:12.331Z,16.55
2017-07-04T02:18:13.593Z,16.49
2017-07-04T02:19:14.890Z,16.52
2017-07-04T02:20:16.183Z,16.59
2017-07-04T02:21:17.424Z,16.53
2017-07-04T02:22:18.728Z,16.58
2017-07-04T02:23:19.974Z,16.58
2017-07-04T02:24:21.217Z,16.52
2017-07-04T02:25:22.529Z,16.52
2017-07-04T02:26:23.797Z,16.5
2017-07-04T02:27:25.164Z,16.59
2017-07-04T02:28:26.427Z,16.49
2017-07-04T02:29:27.676Z,16.58
2017-07-04T02:30:28.999Z,16.6
2017-07-04T02:31:30.299Z,16.67
2017-07-04T02:32:31.558Z,16.52
2017-07-04T02:33:32.850Z,16.59
2017-07-04T02:34:34.126Z,16.56
2017-07-04T02:35:35.367Z,16.58
2017-07-04T02:36:36.698Z,16.5
2017-07-04T02:37:37.970Z,16.48
2017-07-04T02:38:39.360Z,16.48
2017-07-04T02:39:40.618Z,16.49
2017-07-04T02:40:41.907Z,16.49
2017-07-04T02:41:43.302Z,16.5
2017-07-04T02:42:44.598Z,16.45
2017-07-04T02:43:45.979Z,16.48
2017-07-04T02:44:47.151Z,16.42
2017-07-04T02:45:48.410Z,16.44
2017-07-04T02:46:49.728Z,16.42
2017-07-04T02:47:51.007Z,16.52
2017-07-04T02:48:52.405Z,16.53
2017-07-04T02:49:53.637Z,16.5
2017-07-04T02:50:54.898Z,16.59
2017-07-04T02:51:56.145Z,16.55
2017-07-04T02:52:57.444Z,16.52
2017-07-04T02:53:58.741Z,16.49
2017-07-04T02:54:59.990Z,16.55
2017-07-04T02:56:01.280Z,16.6
2017-07-04T02:57:02.562Z,16.59
2017-07-04T02:58:03.803Z,16.58
2017-07-04T02:59:05.122Z,16.68
2017-07-04T03:00:06.397Z,16.68
2017-07-04T03:01:07.662Z,16.73
2017-07-04T03:02:08.917Z,16.73
2017-07-04T03:03:10.176Z,16.73
2017-07-04T03:04:11.453Z,16.75
2017-07-04T03:05:12.782Z,16.74
2017-07-04T03:06:14.093Z,16.74
2017-07-04T03:07:15.366Z,16.83
2017-07-04T03:08:16.636Z,16.83
2017-07-04T03:09:17.868Z,16.77
2017-07-04T03:10:19.143Z,16.78
2017-07-04T03:11:20.406Z,16.83
2017-07-04T03:12:21.667Z,16.71
2017-07-04T03:13:22.953Z,16.74
2017-07-04T03:14:24.257Z,16.74
2017-07-04T03:15:25.503Z,16.71
2017-07-04T03:16:26.784Z,16.73
2017-07-04T03:17:28.115Z,16.73
2017-07-04T03:18:29.413Z,16.73
2017-07-04T03:19:30.674Z,16.74
2017-07-04T03:20:31.966Z,16.7
2017-07-04T03:21:33.279Z,16.71
2017-07-04T03:22:34.564Z,16.67
2017-07-04T03:23:35.824Z,16.68
2017-07-04T03:24:37.111Z,16.78
2017-07-04T03:25:38.451Z,16.83
2017-07-04T03:26:39.758Z,16.83
2017-07-04T03:27:41.229Z,16.86
2017-07-04T03:28:42.479Z,16.85
2017-07-04T03:29:43.768Z,16.81
2017-07-04T03:30:45.117Z,16.86
2017-07-04T03:31:46.395Z,16.86
2017-07-04T03:32:47.686Z,16.9
2017-07-04T03:33:49.047Z,16.88
2017-07-04T03:34:50.311Z,16.89
2017-07-04T03:35:51.647Z,16.93
2017-07-04T03:36:52.989Z,16.95
2017-07-04T03:37:54.279Z,16.95
2017-07-04T03:38:55.546Z,16.96
2017-07-04T03:39:56.806Z,17.08
2017-07-04T03:40:58.062Z,17
2017-07-04T03:41:59.341Z,17.04
2017-07-04T03:43:00.620Z,17
2017-07-04T03:44:01.919Z,17.04
2017-07-04T03:45:03.292Z,17.04
2017-07-04T03:46:04.635Z,17.11
2017-07-04T03:47:05.882Z,17
2017-07-04T03:48:07.201Z,17.07
2017-07-04T03:49:08.476Z,17
2017-07-04T03:50:09.745Z,17.11
2017-07-04T03:51:11.086Z,17.1
2017-07-04T03:52:12.367Z,17.08
2017-07-04T03:53:13.753Z,17.1
2017-07-04T03:54:15.176Z,17.04
2017-07-04T03:55:16.320Z,17.06
2017-07-04T03:56:17.688Z,17.04
2017-07-04T03:57:19.133Z,17.04
2017-07-04T03:58:20.463Z,17.14
2017-07-04T03:59:21.750Z,17.11
2017-07-04T04:00:23.185Z,17.13
2017-07-04T04:01:24.590Z,17.13
2017-07-04T04:02:25.881Z,17.1
2017-07-04T04:03:27.206Z,17.17
2017-07-04T04:04:28.465Z,17.13
2017-07-04T04:05:29.752Z,17.11
2017-07-04T04:06:31.067Z,17.18
2017-07-04T04:07:32.311Z,17.13
2017-07-04T04:08:33.582Z,17.13
2017-07-04T04:09:34.860Z,17.14
2017-07-04T04:10:36.260Z,17.18
2017-07-04T04:11:37.527Z,17.1
2017-07-04T04:12:38.807Z,17.15
2017-07-04T04:13:40.207Z,17.22
2017-07-04T04:14:41.554Z,17.2
2017-07-04T04:15:42.846Z,17.4
2017-07-04T04:16:44.209Z,17.36
2017-07-04T04:17:45.425Z,17.41
2017-07-04T04:18:46.708Z,17.4
2017-07-04T04:19:48.061Z,17.48
2017-07-04T04:20:49.290Z,17.57
2017-07-04T04:21:50.533Z,17.59
2017-07-04T04:22:51.802Z,17.67
2017-07-04T04:23:53.063Z,17.7
2017-07-04T04:24:54.344Z,17.67
2017-07-04T04:25:55.669Z,17.78
2017-07-04T04:26:56.950Z,17.84
2017-07-04T04:27:58.200Z,17.84
2017-07-04T04:28:59.444Z,17.88
2017-07-04T04:30:00.723Z,18
2017-07-04T04:31:02.002Z,18.17
2017-07-04T04:32:03.251Z,18.21
2017-07-04T04:33:04.508Z,18.21
2017-07-04T04:34:05.742Z,18.25
2017-07-04T04:35:06.987Z,18.31
2017-07-04T04:36:08.282Z,18.44
2017-07-04T04:37:09.541Z,18.49
2017-07-04T04:38:10.793Z,18.54
2017-07-04T04:39:12.143Z,18.72
2017-07-04T04:40:13.429Z,18.74
2017-07-04T04:41:14.719Z,18.87
2017-07-04T04:42:16.024Z,18.95
2017-07-04T04:43:17.282Z,19.14
2017-07-04T04:44:18.681Z,19.01
2017-07-04T04:45:20.081Z,19.18
2017-07-04T04:46:21.262Z,19.18
2017-07-04T04:47:22.509Z,19.28
2017-07-04T04:48:23.777Z,19.21
2017-07-04T04:49:25.027Z,19.28
2017-07-04T04:50:26.274Z,19.33
2017-07-04T04:51:27.551Z,19.35
2017-07-04T04:52:28.786Z,19.38
2017-07-04T04:53:30.125Z,19.38
2017-07-04T04:54:31.453Z,19.32
2017-07-04T04:55:32.779Z,19.46
2017-07-04T04:56:34.059Z,19.5
2017-07-04T04:57:35.327Z,19.43
2017-07-04T04:58:36.558Z,19.36
2017-07-04T04:59:37.833Z,19.38
2017-07-04T05:00:39.116Z,19.35
2017-07-04T05:01:40.412Z,19.38
2017-07-04T05:02:41.676Z,19.31
2017-07-04T05:03:42.937Z,19.33
2017-07-04T05:04:44.197Z,19.39
2017-07-04T05:05:45.494Z,19.2
2017-07-04T05:06:46.786Z,19.11
2017-07-04T05:07:48.097Z,19.05
2017-07-04T05:08:49.452Z,19.01
2017-07-04T05:09:50.761Z,18.95
2017-07-04T05:10:52.022Z,18.86
2017-07-04T05:11:53.361Z,18.79
2017-07-04T05:12:54.660Z,18.72
2017-07-04T05:13:56.010Z,18.72
2017-07-04T05:14:57.376Z,18.62
2017-07-04T05:15:58.636Z,18.65
2017-07-04T05:17:00.021Z,18.57
2017-07-04T05:18:01.317Z,18.59
2017-07-04T05:19:02.704Z,18.52
2017-07-04T05:20:03.866Z,18.55
2017-07-04T05:21:05.102Z,18.55
2017-07-04T05:22:06.399Z,18.54
2017-07-04T05:23:07.666Z,18.61
2017-07-04T05:24:08.949Z,18.67
2017-07-04T05:25:10.200Z,18.67
2017-07-04T05:26:11.475Z,18.65
2017-07-04T05:27:12.754Z,18.72
2017-07-04T05:28:14.004Z,18.74
2017-07-04T05:29:15.273Z,18.72
2017-07-04T05:30:16.506Z,18.67
2017-07-04T05:31:17.790Z,18.73
2017-07-04T05:32:19.121Z,18.74
2017-07-04T05:33:20.374Z,18.8
2017-07-04T05:34:21.665Z,18.77
2017-07-04T05:35:22.982Z,18.82
2017-07-04T05:36:24.259Z,18.76
2017-07-04T05:37:25.711Z,18.8
2017-07-04T05:38:26.975Z,18.91
2017-07-04T05:39:28.225Z,18.86
2017-07-04T05:40:29.483Z,18.95
2017-07-04T05:41:30.751Z,18.95
2017-07-04T05:42:32.022Z,18.98
2017-07-04T05:43:33.283Z,19.05
2017-07-04T05:44:34.582Z,19.14
2017-07-04T05:45:35.877Z,19.13
2017-07-04T05:46:37.194Z,19.11
2017-07-04T05:47:38.500Z,19.11
2017-07-04T05:48:39.918Z,19.25
2017-07-04T05:49:41.183Z,19.24
2017-07-04T05:50:42.496Z,19.35
2017-07-04T05:51:43.753Z,19.39
2017-07-04T05:52:45.128Z,19.32
2017-07-04T05:53:46.371Z,19.53
2017-07-04T05:54:47.725Z,19.47
2017-07-04T05:55:48.989Z,19.53
2017-07-04T05:56:50.302Z,19.55
2017-07-04T05:57:51.567Z,19.6
2017-07-04T05:58:52.855Z,19.55
2017-07-04T05:59:54.125Z,19.55
2017-07-04T06:00:55.374Z,19.55
2017-07-04T06:01:56.699Z,19.55
2017-07-04T06:02:57.950Z,19.54
2017-07-04T06:03:59.333Z,19.42
2017-07-04T06:05:00.590Z,19.47
2017-07-04T06:06:01.843Z,19.51
2017-07-04T06:07:03.298Z,19.51
2017-07-04T06:08:04.539Z,19.38
2017-07-04T06:09:05.780Z,19.38
2017-07-04T06:10:07.117Z,19.33
2017-07-04T06:11:08.406Z,19.23
2017-07-04T06:12:09.693Z,19.23
2017-07-04T06:13:10.964Z,19.11
2017-07-04T06:14:12.249Z,19.23
2017-07-04T06:15:13.512Z,19.29
2017-07-04T06:16:14.860Z,19.29
2017-07-04T06:17:16.111Z,19.29
2017-07-04T06:18:17.385Z,19.31
2017-07-04T06:19:18.653Z,19.32
2017-07-04T06:20:19.895Z,19.2
2017-07-04T06:21:21.186Z,19.24
2017-07-04T06:22:22.459Z,19.21
2017-07-04T06:23:23.777Z,19.29
2017-07-04T06:24:25.055Z,19.28
2017-07-04T06:25:26.345Z,19.14
2017-07-04T06:26:27.606Z,19.13
2017-07-04T06:27:28.891Z,19.11
2017-07-04T06:28:30.172Z,19.15
2017-07-04T06:29:31.439Z,19.14
2017-07-04T06:30:32.690Z,19.1
2017-07-04T06:31:33.979Z,19.2
2017-07-04T06:32:35.246Z,19.15
2017-07-04T06:33:36.694Z,19.11
2017-07-04T06:34:37.958Z,19.05
2017-07-04T06:35:39.215Z,19.02
2017-07-04T06:36:40.537Z,19.1
2017-07-04T06:37:41.814Z,19.25
2017-07-04T06:38:43.044Z,19.21
2017-07-04T06:39:44.457Z,19.24
2017-07-04T06:40:45.770Z,19.24
2017-07-04T06:41:47.081Z,19.21
2017-07-04T06:42:48.330Z,19.11
2017-07-04T06:43:49.623Z,19.08
2017-07-04T06:44:50.868Z,18.99
2017-07-04T06:45:52.186Z,19.05
2017-07-04T06:46:53.448Z,19.02
2017-07-04T06:47:54.721Z,18.95
2017-07-04T06:48:56.001Z,18.8
2017-07-04T06:49:57.285Z,18.92
2017-07-04T06:50:58.704Z,18.9
2017-07-04T06:51:59.945Z,18.84
2017-07-04T06:53:01.213Z,18.79
2017-07-04T06:54:02.485Z,18.82
2017-07-04T06:55:03.743Z,18.76
2017-07-04T06:56:05.016Z,18.74
2017-07-04T06:57:06.276Z,18.67
2017-07-04T06:58:07.529Z,18.67
2017-07-04T06:59:08.933Z,18.79
2017-07-04T07:00:10.203Z,18.73
2017-07-04T07:01:11.475Z,18.68
2017-07-04T07:02:12.792Z,18.62
2017-07-04T07:03:14.145Z,18.72
2017-07-04T07:04:15.375Z,18.73
2017-07-04T07:05:16.693Z,18.77
2017-07-04T07:06:17.952Z,18.82
2017-07-04T07:07:19.240Z,18.84
2017-07-04T07:08:30.926Z,18.98
2017-07-04T07:09:32.245Z,18.99
2017-07-04T07:10:33.538Z,19.11
2017-07-04T07:11:34.839Z,19.25
2017-07-04T07:12:36.134Z,19.2
2017-07-04T07:13:37.459Z,19.28
2017-07-04T07:14:38.715Z,19.17
2017-07-04T07:15:39.966Z,19.24
2017-07-04T07:16:41.287Z,19.25
2017-07-04T07:17:42.588Z,19.29
2017-07-04T07:18:43.871Z,19.47
2017-07-04T07:19:45.151Z,19.55
2017-07-04T07:20:46.386Z,19.51
2017-07-04T07:21:47.638Z,19.51
2017-07-04T07:22:49.029Z,19.61
2017-07-04T07:23:50.262Z,19.51
2017-07-04T07:24:51.558Z,19.61
2017-07-04T07:25:52.795Z,19.68
2017-07-04T07:26:54.081Z,19.69
2017-07-04T07:27:55.392Z,19.58
2017-07-04T07:28:56.603Z,19.54
2017-07-04T07:29:57.870Z,19.54
2017-07-04T07:30:59.164Z,19.54
2017-07-04T07:32:00.438Z,19.61
2017-07-04T07:33:01.729Z,19.55
2017-07-04T07:34:02.994Z,19.51
2017-07-04T07:35:04.268Z,19.53
2017-07-04T07:36:05.620Z,19.58
2017-07-04T07:37:06.901Z,19.73
2017-07-04T07:38:08.194Z,19.93
2017-07-04T07:39:09.451Z,20
2017-07-04T07:40:10.761Z,20.13
2017-07-04T07:41:12.017Z,20.24
2017-07-04T07:42:13.278Z,20.46
2017-07-04T07:43:14.697Z,20.53
2017-07-04T07:44:16.002Z,20.56
2017-07-04T07:45:17.315Z,20.49
2017-07-04T07:46:18.584Z,20.58
2017-07-04T07:47:19.879Z,20.59
2017-07-04T07:48:21.304Z,20.59
2017-07-04T07:49:22.614Z,20.59
2017-07-04T07:50:23.934Z,20.65
2017-07-04T07:51:25.219Z,20.61
2017-07-04T07:52:26.545Z,20.59
2017-07-04T07:53:27.943Z,20.58
2017-07-04T07:54:29.306Z,20.61
2017-07-04T07:55:30.566Z,20.59
2017-07-04T07:56:31.808Z,20.64
2017-07-04T07:57:33.100Z,20.74
2017-07-04T07:58:34.360Z,20.84
2017-07-04T07:59:35.729Z,21.16
2017-07-04T08:00:36.982Z,21.48
2017-07-04T08:01:38.268Z,21.74
2017-07-04T08:02:39.535Z,22.01
2017-07-04T08:03:40.864Z,22.09
2017-07-04T08:04:42.184Z,22.17
2017-07-04T08:05:43.474Z,22.25
2017-07-04T08:06:44.712Z,22.44
2017-07-04T08:07:46.000Z,22.56
2017-07-04T08:08:47.328Z,22.57
2017-07-04T08:09:48.598Z,22.71
2017-07-04T08:10:49.885Z,22.92
2017-07-04T08:11:51.182Z,22.96
2017-07-04T08:12:52.423Z,23.2
2017-07-04T08:13:53.726Z,23.46
2017-07-04T08:14:55.016Z,23.68
2017-07-04T08:15:56.300Z,23.76
2017-07-04T08:16:57.556Z,23.89
2017-07-04T08:17:58.830Z,23.87
2017-07-04T08:19:00.131Z,24.16
2017-07-04T08:20:01.502Z,24.37
2017-07-04T08:21:02.749Z,24.5
2017-07-04T08:22:04.047Z,24.54
2017-07-04T08:23:05.345Z,24.85
2017-07-04T08:24:06.623Z,24.95
2017-07-04T08:25:07.889Z,24.8
2017-07-04T08:26:09.156Z,24.5
2017-07-04T08:27:10.553Z,24.2
2017-07-04T08:28:11.929Z,24.17
2017-07-04T08:29:13.225Z,24.1
2017-07-04T08:30:14.507Z,24.04
2017-07-04T08:31:15.801Z,23.94
2017-07-04T08:32:17.131Z,24
2017-07-04T08:33:18.400Z,23.8
2017-07-04T08:34:19.795Z,23.68
2017-07-04T08:35:21.087Z,23.65
2017-07-04T08:36:22.358Z,23.76
2017-07-04T08:37:23.634Z,23.76
2017-07-04T08:38:24.952Z,23.77
2017-07-04T08:39:26.196Z,24.05
2017-07-04T08:40:27.642Z,24.98
2017-07-04T08:41:28.964Z,26.27
2017-07-04T08:42:30.241Z,27.59
2017-07-04T08:43:31.492Z,28.53
2017-07-04T08:44:32.773Z,28.97
2017-07-04T08:45:34.026Z,29.22
2017-07-04T08:46:35.309Z,29.25
2017-07-04T08:47:36.579Z,29.28
2017-07-04T08:48:37.857Z,29.13
2017-07-04T08:49:39.124Z,28.77
2017-07-04T08:50:40.413Z,28.88
2017-07-04T08:51:41.671Z,29.15
2017-07-04T08:52:42.979Z,29.56
2017-07-04T08:53:44.241Z,29.78
2017-07-04T08:54:45.497Z,30.03
2017-07-04T08:55:46.868Z,30.36
2017-07-04T08:56:48.150Z,30.49
2017-07-04T08:57:49.434Z,30.37
2017-07-04T08:58:50.729Z,30.15
2017-07-04T08:59:51.992Z,29.9
2017-07-04T09:00:53.297Z,29.94
2017-07-04T09:01:54.549Z,30.09
2017-07-04T09:02:55.801Z,30.43
2017-07-04T09:03:57.100Z,31.18
2017-07-04T09:04:58.388Z,31.85
2017-07-04T09:05:59.664Z,32.55
2017-07-04T09:07:00.976Z,33.07
2017-07-04T09:08:02.242Z,33.7
2017-07-04T09:09:03.600Z,34
2017-07-04T09:10:04.905Z,34.02
2017-07-04T09:11:06.136Z,33.76
2017-07-04T09:12:07.415Z,33.48
2017-07-04T09:13:08.726Z,33.04
2017-07-04T09:14:10.047Z,32.73
2017-07-04T09:15:11.495Z,32.52
2017-07-04T09:16:12.735Z,32.17
2017-07-04T09:17:14.066Z,31.54
2017-07-04T09:18:15.346Z,31.4
2017-07-04T09:19:16.618Z,31.57
2017-07-04T09:20:17.857Z,31.28
2017-07-04T09:21:19.123Z,31.15
2017-07-04T09:22:20.387Z,30.86
2017-07-04T09:23:21.746Z,30.37
2017-07-04T09:24:23.146Z,30.31
2017-07-04T09:25:24.459Z,30.4
2017-07-04T09:26:25.708Z,30.62
2017-07-04T09:27:27.007Z,31.31
2017-07-04T09:28:28.320Z,31.87
2017-07-04T09:29:29.665Z,32.64
2017-07-04T09:30:30.920Z,33.29
2017-07-04T09:31:32.269Z,34.01
2017-07-04T09:32:33.572Z,34.58
2017-07-04T09:33:34.833Z,34.7
2017-07-04T09:34:36.098Z,35.03
2017-07-04T09:35:37.392Z,34.99
2017-07-04T09:36:38.726Z,34.5
2017-07-04T09:37:40.003Z,34
2017-07-04T09:38:41.262Z,33.83
2017-07-04T09:39:42.580Z,33.31
2017-07-04T09:40:43.881Z,33.43
2017-07-04T09:41:45.217Z,33.6
2017-07-04T09:42:46.469Z,33.6
2017-07-04T09:43:47.716Z,33.63
2017-07-04T09:44:49.077Z,33.82
2017-07-04T09:45:50.344Z,33.87
2017-07-04T09:46:51.603Z,34.07
2017-07-04T09:47:52.948Z,34.02
2017-07-04T09:48:54.367Z,33.95
2017-07-04T09:49:55.522Z,33.97
2017-07-04T09:50:56.842Z,33.8
2017-07-04T09:51:58.093Z,33.52
2017-07-04T09:52:59.347Z,33.42
2017-07-04T09:54:00.673Z,33.14
2017-07-04T09:55:01.945Z,33.03
2017-07-04T09:56:03.221Z,32.88
2017-07-04T09:57:04.493Z,32.62
2017-07-04T09:58:05.812Z,32.21
2017-07-04T09:59:07.133Z,32.29
2017-07-04T10:00:08.422Z,32.49
2017-07-04T10:01:09.734Z,32.86
2017-07-04T10:02:10.937Z,33.3
2017-07-04T10:03:12.226Z,33.82
2017-07-04T10:04:13.501Z,34.44
2017-07-04T10:05:14.925Z,34.98
2017-07-04T10:06:16.307Z,35.82
2017-07-04T10:07:17.623Z,36.29
2017-07-04T10:08:18.999Z,36.15
2017-07-04T10:09:20.281Z,35.89
2017-07-04T10:10:21.539Z,35.79
2017-07-04T10:11:22.823Z,35.47
2017-07-04T10:12:24.122Z,35.32
2017-07-04T10:13:25.401Z,34.83
2017-07-04T10:14:26.672Z,34.63
2017-07-04T10:15:28.056Z,34.56
2017-07-04T10:16:29.343Z,34.32
2017-07-04T10:17:30.609Z,33.79
2017-07-04T10:18:31.904Z,32.96
2017-07-04T10:19:33.254Z,32.42
2017-07-04T10:20:34.551Z,32.17
2017-07-04T10:21:35.924Z,32
2017-07-04T10:22:37.204Z,32.4
2017-07-04T10:23:38.459Z,32.73
2017-07-04T10:24:39.763Z,32.74
2017-07-04T10:25:41.047Z,32.8
2017-07-04T10:26:42.332Z,33.23
2017-07-04T10:27:43.657Z,33.73
2017-07-04T10:28:44.930Z,34.16
2017-07-04T10:29:46.177Z,34.86
2017-07-04T10:30:47.525Z,35.36
2017-07-04T10:31:48.794Z,35.81
2017-07-04T10:32:50.112Z,35.92
2017-07-04T10:33:51.506Z,35.85
2017-07-04T10:34:52.782Z,35.91
2017-07-04T10:35:54.107Z,35.97
2017-07-04T10:36:55.371Z,36.23
2017-07-04T10:37:56.661Z,36.24
2017-07-04T10:38:57.968Z,35.88
2017-07-04T10:39:59.240Z,35.74
2017-07-04T10:41:00.511Z,35.76
2017-07-04T10:42:01.816Z,35.64
2017-07-04T10:43:03.191Z,35.42
2017-07-04T10:44:04.639Z,34.79
2017-07-04T10:45:05.811Z,34.7
2017-07-04T10:46:07.081Z,34.64
2017-07-04T10:47:08.429Z,34.48
2017-07-04T10:48:09.706Z,34.07
2017-07-04T10:49:11.024Z,33.57
2017-07-04T10:50:12.286Z,32.98
2017-07-04T10:51:13.569Z,32.64
2017-07-04T10:52:14.873Z,32.39
2017-07-04T10:53:16.139Z,31.92
2017-07-04T10:54:17.449Z,31.28
2017-07-04T10:55:18.845Z,31.21
2017-07-04T10:56:20.086Z,31.12
2017-07-04T10:57:21.368Z,31.06
2017-07-04T10:58:22.728Z,30.5
2017-07-04T10:59:24.124Z,30.5
2017-07-04T11:00:25.390Z,30.23
2017-07-04T11:01:26.639Z,30.15
2017-07-04T11:02:27.927Z,30.05
2017-07-04T11:03:29.245Z,29.81
2017-07-04T11:04:30.504Z,29.66
2017-07-04T11:05:31.783Z,29.62
2017-07-04T11:06:33.072Z,29.49
2017-07-04T11:07:34.403Z,29.49
2017-07-04T11:08:35.635Z,29.55
2017-07-04T11:09:37.026Z,29.34
2017-07-04T11:10:38.312Z,29.2
2017-07-04T11:11:39.615Z,29.07
2017-07-04T11:12:40.885Z,28.95
2017-07-04T11:13:42.125Z,28.95
2017-07-04T11:14:43.461Z,29.11
2017-07-04T11:15:44.818Z,29.23
2017-07-04T11:16:46.207Z,29.2
2017-07-04T11:17:47.548Z,29.18
2017-07-04T11:18:48.774Z,29.11
2017-07-04T11:19:50.063Z,28.9
2017-07-04T11:20:51.345Z,28.95
2017-07-04T11:21:52.615Z,29.1
2017-07-04T11:22:54.041Z,29.22
2017-07-04T11:23:55.316Z,29.34
2017-07-04T11:24:56.574Z,29.38
2017-07-04T11:25:57.928Z,29.34
2017-07-04T11:26:59.264Z,29.44
2017-07-04T11:28:00.540Z,29.29
2017-07-04T11:29:01.818Z,29.26
2017-07-04T11:30:03.090Z,29.25
2017-07-04T11:31:04.415Z,29.38
2017-07-04T11:32:05.710Z,29.5
2017-07-04T11:33:06.989Z,29.49
2017-07-04T11:34:08.271Z,29.52
2017-07-04T11:35:09.550Z,29.47
2017-07-04T11:36:10.823Z,29.41
2017-07-04T11:37:12.130Z,29.4
2017-07-04T11:38:13.395Z,29.29
2017-07-04T11:39:14.689Z,29.18
2017-07-04T11:40:15.946Z,29.15
2017-07-04T11:41:17.317Z,28.78
2017-07-04T11:42:18.531Z,28.53
2017-07-04T11:43:19.822Z,28.44
2017-07-04T11:44:21.204Z,28.36
2017-07-04T11:45:22.467Z,28.23
2017-07-04T11:46:23.762Z,28.01
2017-07-04T11:47:25.018Z,28.06
2017-07-04T11:48:26.382Z,27.95
2017-07-04T11:49:27.720Z,27.8
2017-07-04T11:50:29.146Z,27.57
2017-07-04T11:51:30.485Z,27.32
2017-07-04T11:52:31.706Z,27.23
2017-07-04T11:53:33.002Z,27.02
2017-07-04T11:54:34.305Z,26.95
2017-07-04T11:55:35.620Z,26.96
2017-07-04T11:56:36.940Z,26.81
2017-07-04T11:57:38.208Z,26.86
2017-07-04T11:58:39.510Z,26.87
2017-07-04T11:59:40.807Z,26.81
2017-07-04T12:00:42.076Z,26.69
2017-07-04T12:01:43.376Z,26.64
2017-07-04T12:02:44.672Z,26.69
2017-07-04T12:03:45.935Z,26.8
2017-07-04T12:04:47.208Z,26.77
2017-07-04T12:05:48.474Z,26.92
2017-07-04T12:06:49.780Z,26.98
2017-07-04T12:07:51.157Z,27.05
2017-07-04T12:08:52.436Z,27.17
2017-07-04T12:09:53.710Z,27.19
2017-07-04T12:10:54.978Z,27.36
2017-07-04T12:11:56.225Z,27.41
2017-07-04T12:12:57.486Z,27.38
2017-07-04T12:13:58.917Z,27.38
2017-07-04T12:15:00.188Z,27.47
2017-07-04T12:16:01.473Z,27.51
2017-07-04T12:17:02.744Z,27.31
2017-07-04T12:18:04.016Z,27.28
2017-07-04T12:19:05.390Z,27.1
2017-07-04T12:20:06.686Z,27.02
2017-07-04T12:21:07.913Z,26.86
2017-07-04T12:22:09.229Z,26.72
2017-07-04T12:23:10.495Z,26.55
2017-07-04T12:24:11.906Z,26.43
2017-07-04T12:25:13.154Z,26.32
2017-07-04T12:26:14.465Z,26.29
2017-07-04T12:27:15.716Z,26.08
2017-07-04T12:28:17.002Z,26.04
2017-07-04T12:29:18.308Z,26.04
2017-07-04T12:30:19.563Z,26.11
2017-07-04T12:31:20.869Z,26.21
2017-07-04T12:32:22.161Z,26.25
2017-07-04T12:33:23.467Z,26.27
2017-07-04T12:34:24.728Z,26.4
2017-07-04T12:35:26.029Z,26.35
2017-07-04T12:36:27.372Z,26.32
2017-07-04T12:37:28.743Z,26.21
2017-07-04T12:38:30.025Z,26.11
2017-07-04T12:39:31.298Z,26.15
2017-07-04T12:40:32.624Z,26.06
2017-07-04T12:41:33.948Z,26.08
2017-07-04T12:42:35.282Z,26.21
2017-07-04T12:43:36.583Z,26.25
2017-07-04T12:44:37.858Z,26.21
2017-07-04T12:45:39.127Z,26.12
2017-07-04T12:46:40.436Z,26.04
2017-07-04T12:47:41.726Z,26.04
2017-07-04T12:48:42.998Z,25.98
2017-07-04T12:49:44.315Z,25.89
2017-07-04T12:50:45.570Z,25.9
2017-07-04T12:51:46.851Z,25.97
2017-07-04T12:52:48.161Z,25.89
2017-07-04T12:53:49.513Z,25.91
2017-07-04T12:54:50.843Z,25.86
2017-07-04T12:55:52.075Z,25.94
2017-07-04T12:56:53.342Z,25.93
2017-07-04T12:57:54.589Z,25.77
2017-07-04T12:58:55.844Z,25.75
2017-07-04T12:59:57.117Z,25.68
2017-07-04T13:00:58.410Z,25.72
2017-07-04T13:01:59.691Z,25.69
2017-07-04T13:03:01.019Z,25.77
2017-07-04T13:04:02.284Z,25.59
2017-07-04T13:05:03.627Z,25.57
2017-07-04T13:06:04.886Z,25.61
2017-07-04T13:07:06.128Z,25.57
2017-07-04T13:08:07.535Z,25.61
2017-07-04T13:09:08.835Z,25.69
2017-07-04T13:10:10.135Z,25.79
2017-07-04T13:11:11.486Z,25.83
2017-07-04T13:12:12.772Z,26.02
2017-07-04T13:13:14.032Z,25.91